sensor_id;sensor_type;location;lat;lon;timestamp;P1;durP1;ratioP1;P2;durP2;ratioP2
51525;SDS011;37611;51.794;21.590;2023-03-24T00:01:39;7.50;;;5.60;;
51525;SDS011;37611;51.794;21.590;2023-03-24T00:05:41;7.50;;;4.90;;
51525;SDS011;37611;51.794;21.590;2023-03-24T00:09:44;7.20;;;6.10;;
51525;SDS011;37611;51.794;21.590;2023-03-24T00:13:46;7.50;;;4.50;;
51525;SDS011;37611;51.794;21.590;2023-03-24T00:17:50;8.20;;;5.30;;
51525;SDS011;37611;51.794;21.590;2023-03-24T00:21:52;7.70;;;5.20;;
51525;SDS011;37611;51.794;21.590;2023-03-24T00:25:59;8.20;;;5.40;;
51525;SDS011;37611;51.794;21.590;2023-03-24T00:30:10;8.10;;;6.00;;
51525;SDS011;37611;51.794;21.590;2023-03-24T00:34:12;7.60;;;5.60;;
51525;SDS011;37611;51.794;21.590;2023-03-24T00:38:14;11.00;;;6.80;;
51525;SDS011;37611;51.794;21.590;2023-03-24T00:42:16;9.10;;;6.60;;
51525;SDS011;37611;51.794;21.590;2023-03-24T00:46:17;10.80;;;6.90;;
51525;SDS011;37611;51.794;21.590;2023-03-24T00:50:29;10.00;;;6.50;;
51525;SDS011;37611;51.794;21.590;2023-03-24T00:54:33;11.30;;;6.30;;
51525;SDS011;37611;51.794;21.590;2023-03-24T00:58:35;9.20;;;6.80;;
51525;SDS011;37611;51.794;21.590;2023-03-24T01:02:37;9.30;;;6.60;;
51525;SDS011;37611;51.794;21.590;2023-03-24T01:06:39;10.20;;;6.80;;
51525;SDS011;37611;51.794;21.590;2023-03-24T01:10:41;8.70;;;6.50;;
51525;SDS011;37611;51.794;21.590;2023-03-24T01:14:50;10.10;;;6.50;;
51525;SDS011;37611;51.794;21.590;2023-03-24T01:18:53;10.50;;;7.20;;
51525;SDS011;37611;51.794;21.590;2023-03-24T01:22:54;11.00;;;6.90;;
51525;SDS011;37611;51.794;21.590;2023-03-24T01:26:56;12.00;;;7.70;;
51525;SDS011;37611;51.794;21.590;2023-03-24T01:30:58;10.50;;;7.90;;
51525;SDS011;37611;51.794;21.590;2023-03-24T01:34:59;9.30;;;7.50;;
51525;SDS011;37611;51.794;21.590;2023-03-24T01:39:02;10.70;;;7.40;;
51525;SDS011;37611;51.794;21.590;2023-03-24T01:43:05;14.90;;;8.00;;
51525;SDS011;37611;51.794;21.590;2023-03-24T01:47:13;12.80;;;7.90;;
51525;SDS011;37611;51.794;21.590;2023-03-24T01:51:32;10.40;;;8.10;;
51525;SDS011;37611;51.794;21.590;2023-03-24T01:55:37;10.00;;;7.10;;
51525;SDS011;37611;51.794;21.590;2023-03-24T01:59:40;12.30;;;8.20;;
51525;SDS011;37611;51.794;21.590;2023-03-24T02:03:45;12.10;;;8.50;;
51525;SDS011;37611;51.794;21.590;2023-03-24T02:07:49;11.60;;;8.70;;
51525;SDS011;37611;51.794;21.590;2023-03-24T02:11:58;11.80;;;8.50;;
51525;SDS011;37611;51.794;21.590;2023-03-24T02:33:55;11.30;;;7.50;;
51525;SDS011;37611;51.794;21.590;2023-03-24T02:42:37;13.80;;;9.90;;
51525;SDS011;37611;51.794;21.590;2023-03-24T03:00:37;15.10;;;10.10;;
51525;SDS011;37611;51.794;21.590;2023-03-24T03:05:08;16.90;;;11.40;;
51525;SDS011;37611;51.794;21.590;2023-03-24T03:09:15;13.00;;;9.90;;
51525;SDS011;37611;51.794;21.590;2023-03-24T03:13:21;14.30;;;10.40;;
51525;SDS011;37611;51.794;21.590;2023-03-24T03:17:32;13.80;;;9.80;;
51525;SDS011;37611;51.794;21.590;2023-03-24T03:21:40;13.00;;;9.20;;
51525;SDS011;37611;51.794;21.590;2023-03-24T03:25:45;12.00;;;8.80;;
51525;SDS011;37611;51.794;21.590;2023-03-24T03:29:54;14.60;;;9.90;;
51525;SDS011;37611;51.794;21.590;2023-03-24T03:34:07;12.00;;;9.20;;
51525;SDS011;37611;51.794;21.590;2023-03-24T03:42:47;12.60;;;9.30;;
51525;SDS011;37611;51.794;21.590;2023-03-24T03:46:49;15.40;;;9.20;;
51525;SDS011;37611;51.794;21.590;2023-03-24T03:50:51;13.50;;;10.10;;
51525;SDS011;37611;51.794;21.590;2023-03-24T03:54:56;18.20;;;10.40;;
51525;SDS011;37611;51.794;21.590;2023-03-24T03:58:59;13.40;;;10.00;;
51525;SDS011;37611;51.794;21.590;2023-03-24T04:16:07;13.60;;;9.70;;
51525;SDS011;37611;51.794;21.590;2023-03-24T04:20:39;14.40;;;9.90;;
51525;SDS011;37611;51.794;21.590;2023-03-24T04:24:55;17.50;;;10.80;;
51525;SDS011;37611;51.794;21.590;2023-03-24T04:29:15;16.70;;;11.80;;
51525;SDS011;37611;51.794;21.590;2023-03-24T04:33:53;20.30;;;14.00;;
51525;SDS011;37611;51.794;21.590;2023-03-24T04:38:04;29.60;;;17.10;;
51525;SDS011;37611;51.794;21.590;2023-03-24T04:42:16;25.50;;;16.90;;
51525;SDS011;37611;51.794;21.590;2023-03-24T04:46:22;27.60;;;15.70;;
51525;SDS011;37611;51.794;21.590;2023-03-24T04:50:28;27.20;;;15.50;;
51525;SDS011;37611;51.794;21.590;2023-03-24T04:54:31;30.10;;;17.70;;
51525;SDS011;37611;51.794;21.590;2023-03-24T04:58:34;30.60;;;18.20;;
51525;SDS011;37611;51.794;21.590;2023-03-24T05:02:35;27.40;;;17.20;;
51525;SDS011;37611;51.794;21.590;2023-03-24T05:06:37;27.40;;;16.80;;
51525;SDS011;37611;51.794;21.590;2023-03-24T05:10:39;27.00;;;16.80;;
51525;SDS011;37611;51.794;21.590;2023-03-24T05:14:41;31.10;;;17.80;;
51525;SDS011;37611;51.794;21.590;2023-03-24T05:18:42;34.30;;;18.20;;
51525;SDS011;37611;51.794;21.590;2023-03-24T05:22:44;26.40;;;16.30;;
51525;SDS011;37611;51.794;21.590;2023-03-24T05:26:46;22.00;;;14.10;;
51525;SDS011;37611;51.794;21.590;2023-03-24T05:30:48;25.20;;;14.00;;
51525;SDS011;37611;51.794;21.590;2023-03-24T05:34:49;20.30;;;14.10;;
51525;SDS011;37611;51.794;21.590;2023-03-24T05:38:51;20.00;;;12.00;;
51525;SDS011;37611;51.794;21.590;2023-03-24T05:42:53;20.50;;;13.00;;
51525;SDS011;37611;51.794;21.590;2023-03-24T05:46:55;21.20;;;12.50;;
51525;SDS011;37611;51.794;21.590;2023-03-24T05:50:57;25.10;;;12.80;;
51525;SDS011;37611;51.794;21.590;2023-03-24T05:54:59;19.50;;;13.90;;
51525;SDS011;37611;51.794;21.590;2023-03-24T05:59:00;18.30;;;13.90;;
51525;SDS011;37611;51.794;21.590;2023-03-24T06:03:03;27.30;;;18.10;;
51525;SDS011;37611;51.794;21.590;2023-03-24T06:07:05;38.80;;;21.10;;
51525;SDS011;37611;51.794;21.590;2023-03-24T06:11:07;32.40;;;20.60;;
51525;SDS011;37611;51.794;21.590;2023-03-24T06:15:08;33.10;;;20.30;;
51525;SDS011;37611;51.794;21.590;2023-03-24T06:19:11;30.90;;;17.80;;
51525;SDS011;37611;51.794;21.590;2023-03-24T06:23:12;33.10;;;18.90;;
51525;SDS011;37611;51.794;21.590;2023-03-24T06:27:15;22.80;;;13.00;;
51525;SDS011;37611;51.794;21.590;2023-03-24T06:31:19;20.50;;;15.90;;
51525;SDS011;37611;51.794;21.590;2023-03-24T06:35:21;27.20;;;19.50;;
51525;SDS011;37611;51.794;21.590;2023-03-24T06:39:23;39.60;;;25.30;;
51525;SDS011;37611;51.794;21.590;2023-03-24T06:43:25;39.70;;;27.80;;
51525;SDS011;37611;51.794;21.590;2023-03-24T06:47:27;37.00;;;22.50;;
51525;SDS011;37611;51.794;21.590;2023-03-24T06:51:28;18.90;;;14.30;;
51525;SDS011;37611;51.794;21.590;2023-03-24T06:55:30;13.60;;;9.60;;
51525;SDS011;37611;51.794;21.590;2023-03-24T06:59:32;13.50;;;10.00;;
51525;SDS011;37611;51.794;21.590;2023-03-24T07:03:34;13.50;;;10.10;;
51525;SDS011;37611;51.794;21.590;2023-03-24T07:07:37;12.70;;;9.70;;
51525;SDS011;37611;51.794;21.590;2023-03-24T07:11:39;13.90;;;11.10;;
51525;SDS011;37611;51.794;21.590;2023-03-24T07:15:41;12.80;;;9.00;;
51525;SDS011;37611;51.794;21.590;2023-03-24T07:19:43;11.40;;;8.70;;
51525;SDS011;37611;51.794;21.590;2023-03-24T07:23:46;12.40;;;9.30;;
51525;SDS011;37611;51.794;21.590;2023-03-24T07:27:48;12.50;;;9.30;;
51525;SDS011;37611;51.794;21.590;2023-03-24T07:31:49;16.80;;;13.20;;
51525;SDS011;37611;51.794;21.590;2023-03-24T07:35:55;14.90;;;12.20;;
51525;SDS011;37611;51.794;21.590;2023-03-24T07:39:57;33.00;;;27.70;;
51525;SDS011;37611;51.794;21.590;2023-03-24T07:43:59;27.80;;;21.50;;
51525;SDS011;37611;51.794;21.590;2023-03-24T07:48:01;17.20;;;12.70;;
51525;SDS011;37611;51.794;21.590;2023-03-24T07:52:03;16.70;;;12.60;;
51525;SDS011;37611;51.794;21.590;2023-03-24T07:56:08;18.30;;;12.40;;
51525;SDS011;37611;51.794;21.590;2023-03-24T08:00:09;15.50;;;11.30;;
51525;SDS011;37611;51.794;21.590;2023-03-24T08:04:30;18.00;;;13.50;;
51525;SDS011;37611;51.794;21.590;2023-03-24T08:08:33;18.70;;;13.00;;
51525;SDS011;37611;51.794;21.590;2023-03-24T08:12:36;15.00;;;12.00;;
51525;SDS011;37611;51.794;21.590;2023-03-24T08:16:38;15.70;;;12.20;;
51525;SDS011;37611;51.794;21.590;2023-03-24T08:20:40;17.10;;;13.00;;
51525;SDS011;37611;51.794;21.590;2023-03-24T08:24:42;15.80;;;11.20;;
51525;SDS011;37611;51.794;21.590;2023-03-24T08:28:43;14.90;;;11.70;;
51525;SDS011;37611;51.794;21.590;2023-03-24T08:32:46;14.30;;;11.20;;
51525;SDS011;37611;51.794;21.590;2023-03-24T08:36:50;14.20;;;11.70;;
51525;SDS011;37611;51.794;21.590;2023-03-24T08:40:51;16.80;;;12.10;;
51525;SDS011;37611;51.794;21.590;2023-03-24T08:44:53;13.90;;;12.10;;
51525;SDS011;37611;51.794;21.590;2023-03-24T08:48:55;16.80;;;12.30;;
51525;SDS011;37611;51.794;21.590;2023-03-24T08:52:57;15.10;;;12.40;;
51525;SDS011;37611;51.794;21.590;2023-03-24T08:56:59;16.20;;;12.50;;
51525;SDS011;37611;51.794;21.590;2023-03-24T09:01:01;15.90;;;13.30;;
51525;SDS011;37611;51.794;21.590;2023-03-24T09:05:03;17.20;;;14.20;;
51525;SDS011;37611;51.794;21.590;2023-03-24T09:09:05;21.80;;;15.50;;
51525;SDS011;37611;51.794;21.590;2023-03-24T09:13:08;17.60;;;14.20;;
51525;SDS011;37611;51.794;21.590;2023-03-24T09:17:10;15.60;;;12.70;;
51525;SDS011;37611;51.794;21.590;2023-03-24T09:21:12;17.40;;;13.20;;
51525;SDS011;37611;51.794;21.590;2023-03-24T09:25:15;18.80;;;14.30;;
51525;SDS011;37611;51.794;21.590;2023-03-24T09:29:19;15.50;;;12.90;;
51525;SDS011;37611;51.794;21.590;2023-03-24T09:33:21;14.10;;;11.60;;
51525;SDS011;37611;51.794;21.590;2023-03-24T09:37:24;14.70;;;11.30;;
51525;SDS011;37611;51.794;21.590;2023-03-24T09:41:29;15.00;;;11.50;;
51525;SDS011;37611;51.794;21.590;2023-03-24T09:45:33;14.10;;;10.40;;
51525;SDS011;37611;51.794;21.590;2023-03-24T09:49:38;11.80;;;9.70;;
51525;SDS011;37611;51.794;21.590;2023-03-24T09:58:15;10.70;;;8.70;;
51525;SDS011;37611;51.794;21.590;2023-03-24T10:02:19;12.70;;;9.90;;
51525;SDS011;37611;51.794;21.590;2023-03-24T10:06:23;11.20;;;8.90;;
51525;SDS011;37611;51.794;21.590;2023-03-24T10:23:32;12.50;;;9.50;;
51525;SDS011;37611;51.794;21.590;2023-03-24T10:27:48;13.40;;;9.20;;
51525;SDS011;37611;51.794;21.590;2023-03-24T10:36:55;11.90;;;9.50;;
51525;SDS011;37611;51.794;21.590;2023-03-24T10:40:59;8.60;;;6.50;;
51525;SDS011;37611;51.794;21.590;2023-03-24T10:45:02;6.50;;;5.40;;
51525;SDS011;37611;51.794;21.590;2023-03-24T10:53:16;6.60;;;5.90;;
51525;SDS011;37611;51.794;21.590;2023-03-24T10:57:19;10.40;;;5.90;;
51525;SDS011;37611;51.794;21.590;2023-03-24T11:01:25;6.90;;;5.40;;
51525;SDS011;37611;51.794;21.590;2023-03-24T11:05:37;7.60;;;5.20;;
51525;SDS011;37611;51.794;21.590;2023-03-24T11:09:43;7.40;;;5.60;;
51525;SDS011;37611;51.794;21.590;2023-03-24T11:13:54;7.40;;;5.80;;
51525;SDS011;37611;51.794;21.590;2023-03-24T11:22:12;6.70;;;5.80;;
51525;SDS011;37611;51.794;21.590;2023-03-24T11:26:21;7.60;;;5.90;;
51525;SDS011;37611;51.794;21.590;2023-03-24T11:30:36;9.40;;;6.50;;
51525;SDS011;37611;51.794;21.590;2023-03-24T11:34:47;9.80;;;7.30;;
51525;SDS011;37611;51.794;21.590;2023-03-24T11:39:00;11.40;;;8.90;;
51525;SDS011;37611;51.794;21.590;2023-03-24T11:43:18;13.60;;;7.90;;
51525;SDS011;37611;51.794;21.590;2023-03-24T11:47:28;10.20;;;7.00;;
51525;SDS011;37611;51.794;21.590;2023-03-24T11:51:36;11.40;;;9.90;;
51525;SDS011;37611;51.794;21.590;2023-03-24T12:00:13;6.40;;;5.80;;
51525;SDS011;37611;51.794;21.590;2023-03-24T12:04:25;6.60;;;4.60;;
51525;SDS011;37611;51.794;21.590;2023-03-24T12:08:30;5.50;;;4.60;;
51525;SDS011;37611;51.794;21.590;2023-03-24T12:12:37;5.50;;;4.50;;
51525;SDS011;37611;51.794;21.590;2023-03-24T12:34:03;7.40;;;5.70;;
51525;SDS011;37611;51.794;21.590;2023-03-24T12:38:29;8.20;;;5.60;;
51525;SDS011;37611;51.794;21.590;2023-03-24T12:42:46;6.60;;;5.00;;
51525;SDS011;37611;51.794;21.590;2023-03-24T12:51:09;6.30;;;4.90;;
51525;SDS011;37611;51.794;21.590;2023-03-24T12:59:37;6.10;;;5.40;;
51525;SDS011;37611;51.794;21.590;2023-03-24T13:03:43;4.20;;;3.50;;
51525;SDS011;37611;51.794;21.590;2023-03-24T13:07:48;5.20;;;4.00;;
51525;SDS011;37611;51.794;21.590;2023-03-24T13:11:56;4.10;;;3.70;;
51525;SDS011;37611;51.794;21.590;2023-03-24T13:16:20;5.20;;;3.90;;
51525;SDS011;37611;51.794;21.590;2023-03-24T13:20:31;4.70;;;3.60;;
51525;SDS011;37611;51.794;21.590;2023-03-24T13:24:33;8.80;;;7.10;;
51525;SDS011;37611;51.794;21.590;2023-03-24T13:29:19;3.90;;;2.70;;
51525;SDS011;37611;51.794;21.590;2023-03-24T13:33:09;5.70;;;3.50;;
51525;SDS011;37611;51.794;21.590;2023-03-24T13:37:16;8.40;;;3.20;;
51525;SDS011;37611;51.794;21.590;2023-03-24T13:41:25;5.20;;;3.60;;
51525;SDS011;37611;51.794;21.590;2023-03-24T13:49:59;3.40;;;2.70;;
51525;SDS011;37611;51.794;21.590;2023-03-24T13:58:19;6.20;;;4.30;;
51525;SDS011;37611;51.794;21.590;2023-03-24T14:06:44;4.30;;;2.60;;
51525;SDS011;37611;51.794;21.590;2023-03-24T14:10:51;5.50;;;4.30;;
51525;SDS011;37611;51.794;21.590;2023-03-24T14:15:02;4.20;;;2.60;;
51525;SDS011;37611;51.794;21.590;2023-03-24T14:27:35;4.60;;;2.60;;
51525;SDS011;37611;51.794;21.590;2023-03-24T14:31:42;3.90;;;2.90;;
51525;SDS011;37611;51.794;21.590;2023-03-24T14:36:02;4.30;;;2.40;;
51525;SDS011;37611;51.794;21.590;2023-03-24T14:40:21;12.10;;;9.70;;
51525;SDS011;37611;51.794;21.590;2023-03-24T14:53:19;7.30;;;4.50;;
51525;SDS011;37611;51.794;21.590;2023-03-24T14:57:45;10.10;;;7.40;;
51525;SDS011;37611;51.794;21.590;2023-03-24T15:01:47;6.90;;;4.00;;
51525;SDS011;37611;51.794;21.590;2023-03-24T15:05:51;4.10;;;2.70;;
51525;SDS011;37611;51.794;21.590;2023-03-24T15:09:53;4.30;;;3.10;;
51525;SDS011;37611;51.794;21.590;2023-03-24T15:13:55;7.50;;;4.00;;
51525;SDS011;37611;51.794;21.590;2023-03-24T15:17:59;6.80;;;4.10;;
51525;SDS011;37611;51.794;21.590;2023-03-24T15:22:03;7.30;;;4.20;;
51525;SDS011;37611;51.794;21.590;2023-03-24T15:26:11;32.20;;;19.90;;
51525;SDS011;37611;51.794;21.590;2023-03-24T15:30:14;46.00;;;27.50;;
51525;SDS011;37611;51.794;21.590;2023-03-24T15:34:24;32.10;;;20.10;;
51525;SDS011;37611;51.794;21.590;2023-03-24T15:38:31;37.50;;;23.00;;
51525;SDS011;37611;51.794;21.590;2023-03-24T15:42:34;18.70;;;12.40;;
51525;SDS011;37611;51.794;21.590;2023-03-24T15:46:42;19.20;;;11.50;;
51525;SDS011;37611;51.794;21.590;2023-03-24T15:51:00;44.50;;;28.00;;
51525;SDS011;37611;51.794;21.590;2023-03-24T15:59:15;35.30;;;20.40;;
51525;SDS011;37611;51.794;21.590;2023-03-24T16:03:17;27.80;;;17.00;;
51525;SDS011;37611;51.794;21.590;2023-03-24T16:07:29;14.90;;;10.70;;
51525;SDS011;37611;51.794;21.590;2023-03-24T16:11:33;19.40;;;13.20;;
51525;SDS011;37611;51.794;21.590;2023-03-24T16:15:35;50.70;;;31.40;;
51525;SDS011;37611;51.794;21.590;2023-03-24T16:19:36;52.80;;;37.30;;
51525;SDS011;37611;51.794;21.590;2023-03-24T16:23:39;28.10;;;18.60;;
51525;SDS011;37611;51.794;21.590;2023-03-24T16:27:44;21.40;;;16.70;;
51525;SDS011;37611;51.794;21.590;2023-03-24T16:31:47;55.90;;;39.60;;
51525;SDS011;37611;51.794;21.590;2023-03-24T16:35:51;14.80;;;11.00;;
51525;SDS011;37611;51.794;21.590;2023-03-24T16:39:53;28.10;;;17.00;;
51525;SDS011;37611;51.794;21.590;2023-03-24T16:43:55;35.30;;;25.40;;
51525;SDS011;37611;51.794;21.590;2023-03-24T16:47:57;14.30;;;10.40;;
51525;SDS011;37611;51.794;21.590;2023-03-24T16:51:59;24.60;;;14.20;;
51525;SDS011;37611;51.794;21.590;2023-03-24T16:56:01;20.70;;;14.40;;
51525;SDS011;37611;51.794;21.590;2023-03-24T17:00:03;48.70;;;27.20;;
51525;SDS011;37611;51.794;21.590;2023-03-24T17:08:17;67.40;;;35.90;;
51525;SDS011;37611;51.794;21.590;2023-03-24T17:12:19;40.10;;;24.40;;
51525;SDS011;37611;51.794;21.590;2023-03-24T17:16:21;46.20;;;30.20;;
51525;SDS011;37611;51.794;21.590;2023-03-24T17:20:23;33.90;;;23.00;;
51525;SDS011;37611;51.794;21.590;2023-03-24T17:24:25;90.20;;;44.30;;
51525;SDS011;37611;51.794;21.590;2023-03-24T17:28:27;22.00;;;13.10;;
51525;SDS011;37611;51.794;21.590;2023-03-24T17:32:29;32.50;;;20.90;;
51525;SDS011;37611;51.794;21.590;2023-03-24T17:36:32;28.40;;;21.10;;
51525;SDS011;37611;51.794;21.590;2023-03-24T17:40:34;23.00;;;17.10;;
51525;SDS011;37611;51.794;21.590;2023-03-24T17:44:36;27.00;;;16.50;;
51525;SDS011;37611;51.794;21.590;2023-03-24T17:48:37;14.40;;;12.30;;
51525;SDS011;37611;51.794;21.590;2023-03-24T17:52:43;14.50;;;10.60;;
51525;SDS011;37611;51.794;21.590;2023-03-24T17:56:47;10.00;;;8.00;;
51525;SDS011;37611;51.794;21.590;2023-03-24T18:00:48;10.70;;;9.40;;
51525;SDS011;37611;51.794;21.590;2023-03-24T18:04:50;21.20;;;16.00;;
51525;SDS011;37611;51.794;21.590;2023-03-24T18:08:52;15.00;;;12.60;;
51525;SDS011;37611;51.794;21.590;2023-03-24T18:12:54;31.30;;;21.00;;
51525;SDS011;37611;51.794;21.590;2023-03-24T18:16:56;16.30;;;14.10;;
51525;SDS011;37611;51.794;21.590;2023-03-24T18:20:57;14.90;;;13.00;;
51525;SDS011;37611;51.794;21.590;2023-03-24T18:24:59;14.40;;;12.40;;
51525;SDS011;37611;51.794;21.590;2023-03-24T18:29:04;16.20;;;12.10;;
51525;SDS011;37611;51.794;21.590;2023-03-24T18:33:06;13.80;;;12.50;;
51525;SDS011;37611;51.794;21.590;2023-03-24T18:37:07;21.80;;;16.20;;
51525;SDS011;37611;51.794;21.590;2023-03-24T18:41:10;15.60;;;13.90;;
51525;SDS011;37611;51.794;21.590;2023-03-24T18:45:14;14.60;;;13.10;;
51525;SDS011;37611;51.794;21.590;2023-03-24T18:49:18;17.20;;;15.20;;
51525;SDS011;37611;51.794;21.590;2023-03-24T18:53:20;17.80;;;16.00;;
51525;SDS011;37611;51.794;21.590;2023-03-24T18:57:22;21.30;;;17.50;;
51525;SDS011;37611;51.794;21.590;2023-03-24T19:01:24;24.40;;;21.80;;
51525;SDS011;37611;51.794;21.590;2023-03-24T19:05:26;19.30;;;17.30;;
51525;SDS011;37611;51.794;21.590;2023-03-24T19:09:29;18.40;;;14.80;;
51525;SDS011;37611;51.794;21.590;2023-03-24T19:13:31;25.70;;;18.50;;
51525;SDS011;37611;51.794;21.590;2023-03-24T19:17:33;12.90;;;11.60;;
51525;SDS011;37611;51.794;21.590;2023-03-24T19:21:36;14.00;;;12.10;;
51525;SDS011;37611;51.794;21.590;2023-03-24T19:25:40;29.20;;;20.40;;
51525;SDS011;37611;51.794;21.590;2023-03-24T19:29:44;23.80;;;17.60;;
51525;SDS011;37611;51.794;21.590;2023-03-24T19:33:47;27.80;;;21.90;;
51525;SDS011;37611;51.794;21.590;2023-03-24T19:37:48;30.70;;;24.70;;
51525;SDS011;37611;51.794;21.590;2023-03-24T19:41:51;29.40;;;23.80;;
51525;SDS011;37611;51.794;21.590;2023-03-24T19:45:54;28.10;;;24.20;;
51525;SDS011;37611;51.794;21.590;2023-03-24T19:49:56;132.80;;;65.30;;
51525;SDS011;37611;51.794;21.590;2023-03-24T19:53:58;53.00;;;34.80;;
51525;SDS011;37611;51.794;21.590;2023-03-24T19:58:00;118.30;;;69.80;;
51525;SDS011;37611;51.794;21.590;2023-03-24T20:02:02;94.30;;;75.60;;
51525;SDS011;37611;51.794;21.590;2023-03-24T20:06:16;103.90;;;70.20;;
51525;SDS011;37611;51.794;21.590;2023-03-24T20:10:17;76.60;;;51.30;;
51525;SDS011;37611;51.794;21.590;2023-03-24T20:14:21;82.40;;;66.40;;
51525;SDS011;37611;51.794;21.590;2023-03-24T20:18:23;101.30;;;82.00;;
51525;SDS011;37611;51.794;21.590;2023-03-24T20:22:24;76.80;;;61.70;;
51525;SDS011;37611;51.794;21.590;2023-03-24T20:26:26;141.10;;;107.50;;
51525;SDS011;37611;51.794;21.590;2023-03-24T20:30:29;110.70;;;85.60;;
51525;SDS011;37611;51.794;21.590;2023-03-24T20:34:32;161.30;;;123.10;;
51525;SDS011;37611;51.794;21.590;2023-03-24T20:38:34;227.30;;;155.00;;
51525;SDS011;37611;51.794;21.590;2023-03-24T20:42:36;169.70;;;125.10;;
51525;SDS011;37611;51.794;21.590;2023-03-24T20:46:38;159.60;;;120.70;;
51525;SDS011;37611;51.794;21.590;2023-03-24T20:50:40;142.60;;;105.10;;
51525;SDS011;37611;51.794;21.590;2023-03-24T20:54:43;139.30;;;109.30;;
51525;SDS011;37611;51.794;21.590;2023-03-24T20:58:46;128.60;;;99.70;;
51525;SDS011;37611;51.794;21.590;2023-03-24T21:02:48;113.60;;;89.00;;
51525;SDS011;37611;51.794;21.590;2023-03-24T21:06:50;136.70;;;98.80;;
51525;SDS011;37611;51.794;21.590;2023-03-24T21:10:54;262.90;;;141.60;;
51525;SDS011;37611;51.794;21.590;2023-03-24T21:14:57;227.10;;;125.30;;
51525;SDS011;37611;51.794;21.590;2023-03-24T21:18:59;201.30;;;119.20;;
51525;SDS011;37611;51.794;21.590;2023-03-24T21:23:02;178.50;;;111.30;;
51525;SDS011;37611;51.794;21.590;2023-03-24T21:27:04;132.90;;;94.30;;
51525;SDS011;37611;51.794;21.590;2023-03-24T21:31:09;114.80;;;88.60;;
51525;SDS011;37611;51.794;21.590;2023-03-24T21:35:14;109.60;;;83.00;;
51525;SDS011;37611;51.794;21.590;2023-03-24T21:39:17;83.00;;;65.00;;
51525;SDS011;37611;51.794;21.590;2023-03-24T21:43:18;83.00;;;65.30;;
51525;SDS011;37611;51.794;21.590;2023-03-24T21:47:20;84.50;;;67.00;;
51525;SDS011;37611;51.794;21.590;2023-03-24T21:51:24;70.50;;;56.90;;
51525;SDS011;37611;51.794;21.590;2023-03-24T21:55:31;55.80;;;45.00;;
51525;SDS011;37611;51.794;21.590;2023-03-24T21:59:33;43.00;;;36.90;;
51525;SDS011;37611;51.794;21.590;2023-03-24T22:03:36;24.40;;;21.10;;
51525;SDS011;37611;51.794;21.590;2023-03-24T22:07:39;16.80;;;14.90;;
51525;SDS011;37611;51.794;21.590;2023-03-24T22:11:44;18.70;;;15.60;;
51525;SDS011;37611;51.794;21.590;2023-03-24T22:15:50;16.00;;;14.40;;
51525;SDS011;37611;51.794;21.590;2023-03-24T22:19:52;16.10;;;14.50;;
51525;SDS011;37611;51.794;21.590;2023-03-24T22:23:54;14.60;;;13.00;;
51525;SDS011;37611;51.794;21.590;2023-03-24T22:27:56;14.30;;;10.30;;
51525;SDS011;37611;51.794;21.590;2023-03-24T22:31:58;12.00;;;10.50;;
51525;SDS011;37611;51.794;21.590;2023-03-24T22:36:00;11.60;;;9.80;;
51525;SDS011;37611;51.794;21.590;2023-03-24T22:40:02;11.40;;;9.30;;
51525;SDS011;37611;51.794;21.590;2023-03-24T22:44:05;10.80;;;9.70;;
51525;SDS011;37611;51.794;21.590;2023-03-24T22:48:07;10.30;;;9.00;;
51525;SDS011;37611;51.794;21.590;2023-03-24T22:52:09;10.10;;;9.10;;
51525;SDS011;37611;51.794;21.590;2023-03-24T22:56:12;9.60;;;8.70;;
51525;SDS011;37611;51.794;21.590;2023-03-24T23:00:15;8.70;;;7.80;;
51525;SDS011;37611;51.794;21.590;2023-03-24T23:04:19;12.30;;;9.20;;
51525;SDS011;37611;51.794;21.590;2023-03-24T23:08:21;10.30;;;8.50;;
51525;SDS011;37611;51.794;21.590;2023-03-24T23:12:25;8.60;;;7.60;;
51525;SDS011;37611;51.794;21.590;2023-03-24T23:16:26;8.50;;;7.60;;
51525;SDS011;37611;51.794;21.590;2023-03-24T23:20:28;9.70;;;8.70;;
51525;SDS011;37611;51.794;21.590;2023-03-24T23:24:30;13.70;;;12.30;;
51525;SDS011;37611;51.794;21.590;2023-03-24T23:28:34;14.40;;;11.10;;
51525;SDS011;37611;51.794;21.590;2023-03-24T23:32:36;9.70;;;8.30;;
51525;SDS011;37611;51.794;21.590;2023-03-24T23:36:38;8.90;;;7.30;;
51525;SDS011;37611;51.794;21.590;2023-03-24T23:40:45;7.50;;;6.60;;
51525;SDS011;37611;51.794;21.590;2023-03-24T23:44:46;8.50;;;6.60;;
51525;SDS011;37611;51.794;21.590;2023-03-24T23:48:48;8.70;;;6.50;;
51525;SDS011;37611;51.794;21.590;2023-03-24T23:52:50;7.70;;;6.80;;
51525;SDS011;37611;51.794;21.590;2023-03-24T23:56:52;7.80;;;5.80;;
